createdAt,value
2022-12-05T00:00:54.195Z,10.50
2022-12-05T00:03:20.766Z,7.72
2022-12-05T00:05:47.370Z,11.67
2022-12-05T00:08:14.002Z,11.40
2022-12-05T00:10:40.579Z,12.77
2022-12-05T00:13:07.299Z,5.38
2022-12-05T00:15:38.758Z,6.13
2022-12-05T00:18:05.778Z,6.20
2022-12-05T00:20:32.441Z,11.13
2022-12-05T00:22:58.819Z,8.32
2022-12-05T00:25:25.235Z,9.15
2022-12-05T00:27:51.605Z,10.00
2022-12-05T00:30:18.162Z,10.40
2022-12-05T00:32:44.466Z,10.82
2022-12-05T00:35:10.841Z,7.85
2022-12-05T00:37:37.491Z,11.98
2022-12-05T00:40:04.334Z,8.40
2022-12-05T00:42:30.698Z,10.67
2022-12-05T00:44:56.993Z,6.63
2022-12-05T00:47:23.298Z,11.35
2022-12-05T00:49:49.642Z,7.50
2022-12-05T00:52:15.962Z,10.18
2022-12-05T00:54:42.341Z,9.57
2022-12-05T00:57:08.719Z,4.80
2022-12-05T00:59:35.094Z,10.07
2022-12-05T01:02:01.516Z,10.13
2022-12-05T01:04:27.986Z,11.15
2022-12-05T01:06:56.351Z,10.40
2022-12-05T01:09:23.097Z,11.02
2022-12-05T01:11:50.254Z,11.50
2022-12-05T01:14:18.551Z,11.43
2022-12-05T01:16:47.234Z,11.02
2022-12-05T01:19:17.357Z,6.33
2022-12-05T01:21:44.274Z,6.82
2022-12-05T01:24:11.637Z,11.00
2022-12-05T01:26:38.225Z,10.07
2022-12-05T01:29:04.991Z,9.35
2022-12-05T01:31:33.860Z,11.00
2022-12-05T01:34:02.157Z,12.45
2022-12-05T01:36:29.557Z,9.75
2022-12-05T01:38:56.373Z,11.45
2022-12-05T01:41:26.208Z,11.88
2022-12-05T01:44:00.699Z,10.90
2022-12-05T01:46:29.534Z,11.23
2022-12-05T01:49:19.667Z,10.50
2022-12-05T01:51:50.034Z,12.00
2022-12-05T01:54:18.412Z,11.60
2022-12-05T01:56:52.730Z,11.37
2022-12-05T01:59:21.748Z,10.00
2022-12-05T02:01:48.443Z,11.23
2022-12-05T02:04:15.266Z,7.88
2022-12-05T02:06:42.522Z,8.82
2022-12-05T02:09:08.848Z,7.53
2022-12-05T02:11:41.774Z,10.85
2022-12-05T02:14:23.482Z,11.48
2022-12-05T02:17:14.638Z,7.97
2022-12-05T02:20:10.758Z,10.65
2022-12-05T02:22:55.929Z,10.63
2022-12-05T02:25:50.093Z,8.95
2022-12-05T02:28:53.821Z,8.00
2022-12-05T02:31:53.017Z,7.90
2022-12-05T02:34:29.650Z,11.23
2022-12-05T02:37:03.476Z,7.37
2022-12-05T02:39:35.206Z,8.15
2022-12-05T02:42:05.030Z,10.18
2022-12-05T02:44:34.469Z,8.88
2022-12-05T02:47:01.086Z,9.57
2022-12-05T02:49:31.719Z,8.50
2022-12-05T02:52:00.501Z,10.55
2022-12-05T02:54:31.401Z,9.43
2022-12-05T02:56:59.847Z,10.23
2022-12-05T02:59:26.256Z,9.32
2022-12-05T03:01:52.843Z,10.30
2022-12-05T03:04:22.401Z,10.27
2022-12-05T03:06:53.816Z,9.30
2022-12-05T03:09:32.241Z,9.93
2022-12-05T03:12:06.973Z,8.68
2022-12-05T03:14:41.633Z,10.20
2022-12-05T03:17:14.050Z,10.32
2022-12-05T03:19:46.149Z,9.40
2022-12-05T03:22:27.250Z,10.55
2022-12-05T03:24:54.606Z,9.07
2022-12-05T03:27:47.834Z,10.70
2022-12-05T03:30:18.885Z,8.68
2022-12-05T03:32:51.254Z,6.82
2022-12-05T03:35:23.462Z,6.85
2022-12-05T03:37:56.973Z,8.57
2022-12-05T03:40:32.102Z,6.50
2022-12-05T03:43:20.557Z,10.20
2022-12-05T03:45:55.702Z,9.07
2022-12-05T03:48:27.970Z,8.48
2022-12-05T03:50:56.289Z,7.20
2022-12-05T03:53:27.529Z,8.73
2022-12-05T03:56:12.711Z,8.77
2022-12-05T03:58:46.380Z,8.52
2022-12-05T04:01:15.816Z,8.32
2022-12-05T04:03:50.924Z,8.95
2022-12-05T04:06:24.857Z,8.47
2022-12-05T04:08:54.857Z,8.32
2022-12-05T04:11:25.145Z,8.55
2022-12-05T04:13:54.802Z,8.07
2022-12-05T04:16:50.230Z,7.85
2022-12-05T04:19:24.534Z,8.30
2022-12-05T04:21:54.704Z,6.60
2022-12-05T04:24:47.013Z,7.30
2022-12-05T04:27:30.472Z,8.65
2022-12-05T04:30:08.982Z,6.55
2022-12-05T04:32:59.327Z,7.87
2022-12-05T04:35:30.816Z,9.23
2022-12-05T04:38:04.005Z,7.10
2022-12-05T04:40:48.790Z,9.63
2022-12-05T04:43:17.547Z,5.63
2022-12-05T04:45:45.161Z,7.53
2022-12-05T04:48:16.141Z,7.53
2022-12-05T04:50:46.681Z,8.43
2022-12-05T04:53:14.410Z,8.50
2022-12-05T04:55:46.841Z,7.97
2022-12-05T04:58:18.416Z,8.53
2022-12-05T05:01:19.007Z,9.10
2022-12-05T05:03:54.951Z,9.32
2022-12-05T05:06:21.493Z,7.28
2022-12-05T05:08:54.212Z,8.52
2022-12-05T05:11:27.654Z,8.80
2022-12-05T05:13:54.654Z,8.25
2022-12-05T05:16:24.093Z,8.50
2022-12-05T05:18:51.149Z,8.57
2022-12-05T05:21:29.041Z,7.97
2022-12-05T05:23:56.108Z,8.30
2022-12-05T05:26:24.131Z,8.73
2022-12-05T05:28:51.056Z,8.52
2022-12-05T05:31:18.610Z,8.38
2022-12-05T05:33:48.816Z,7.20
2022-12-05T05:36:15.500Z,8.83
2022-12-05T05:38:45.242Z,9.63
2022-12-05T05:41:17.561Z,9.02
2022-12-05T05:43:44.604Z,8.18
2022-12-05T05:46:12.272Z,7.70
2022-12-05T05:48:39.162Z,9.20
2022-12-05T05:51:08.361Z,9.10
2022-12-05T05:53:34.950Z,8.85
2022-12-05T05:56:05.837Z,9.00
2022-12-05T05:58:32.478Z,9.82
2022-12-05T06:01:05.917Z,8.43
2022-12-05T06:03:32.875Z,6.75
2022-12-05T06:06:01.006Z,8.88
2022-12-05T06:08:30.397Z,7.90
2022-12-05T06:10:57.034Z,7.68
2022-12-05T06:13:23.460Z,8.13
2022-12-05T06:15:49.958Z,8.55
2022-12-05T06:18:16.369Z,8.52
2022-12-05T06:20:42.785Z,9.48
2022-12-05T06:23:09.150Z,9.07
2022-12-05T06:25:35.535Z,8.23
2022-12-05T06:28:01.909Z,6.78
2022-12-05T06:30:28.283Z,9.15
2022-12-05T06:32:54.715Z,8.88
2022-12-05T06:35:21.102Z,9.20
2022-12-05T06:37:47.437Z,7.43
2022-12-05T06:40:14.346Z,7.35
2022-12-05T06:42:40.670Z,8.30
2022-12-05T06:45:07.365Z,9.23
2022-12-05T06:47:33.763Z,7.70
2022-12-05T06:50:00.517Z,8.97
2022-12-05T06:52:27.107Z,7.78
2022-12-05T06:54:53.501Z,8.30
2022-12-05T06:57:19.805Z,8.88
2022-12-05T06:59:46.255Z,9.30
2022-12-05T07:02:13.243Z,9.10
2022-12-05T07:04:39.671Z,8.43
2022-12-05T07:07:06.117Z,8.82
2022-12-05T07:09:51.195Z,8.65
2022-12-05T07:12:19.064Z,7.15
2022-12-05T07:14:48.573Z,8.80
2022-12-05T07:17:15.806Z,7.25
2022-12-05T07:19:42.169Z,9.38
2022-12-05T07:22:15.214Z,8.30
2022-12-05T07:24:42.414Z,6.47
2022-12-05T07:27:08.731Z,8.17
2022-12-05T07:29:35.093Z,8.52
2022-12-05T07:32:01.833Z,9.60
2022-12-05T07:34:28.381Z,8.15
2022-12-05T07:36:54.766Z,8.75
2022-12-05T07:39:21.148Z,8.17
2022-12-05T07:41:47.539Z,10.25
2022-12-05T07:44:13.896Z,9.90
2022-12-05T07:46:40.286Z,8.05
2022-12-05T07:49:07.826Z,8.93
2022-12-05T07:51:35.407Z,9.97
2022-12-05T07:54:02.122Z,9.40
2022-12-05T07:56:28.768Z,8.25
2022-12-05T07:58:56.272Z,8.35
2022-12-05T08:01:25.856Z,8.02
2022-12-05T08:03:54.533Z,8.63
2022-12-05T08:06:24.292Z,3.30
2022-12-05T08:08:51.377Z,5.32
2022-12-05T08:11:24.494Z,8.73
2022-12-05T08:13:51.405Z,4.40
2022-12-05T08:16:21.409Z,7.03
2022-12-05T08:18:48.047Z,7.45
2022-12-05T08:21:17.631Z,8.18
2022-12-05T08:23:45.185Z,8.80
2022-12-05T08:26:20.323Z,7.25
2022-12-05T08:28:47.951Z,7.90
2022-12-05T08:31:16.857Z,7.80
2022-12-05T08:33:44.144Z,7.63
2022-12-05T08:36:13.301Z,7.93
2022-12-05T08:38:40.047Z,8.05
2022-12-05T08:41:09.735Z,6.57
2022-12-05T08:43:36.486Z,7.75
2022-12-05T08:46:04.193Z,8.43
2022-12-05T08:48:32.467Z,7.28
2022-12-05T08:51:00.257Z,7.45
2022-12-05T08:53:26.668Z,7.38
2022-12-05T08:55:52.987Z,8.02
2022-12-05T08:58:19.303Z,6.40
2022-12-05T09:00:45.625Z,7.18
2022-12-05T09:03:12.269Z,7.85
2022-12-05T09:05:39.177Z,8.23
2022-12-05T09:08:05.649Z,6.35
2022-12-05T09:10:32.954Z,7.45
2022-12-05T09:12:59.304Z,7.25
2022-12-05T09:15:26.811Z,7.03
2022-12-05T09:17:53.279Z,7.13
2022-12-05T09:20:19.962Z,6.13
2022-12-05T09:22:46.369Z,6.20
2022-12-05T09:25:12.784Z,6.30
2022-12-05T09:27:39.257Z,6.68
2022-12-05T09:30:06.475Z,5.97
2022-12-05T09:32:32.846Z,5.20
2022-12-05T09:34:59.592Z,5.25
2022-12-05T09:37:41.147Z,5.05
2022-12-05T09:40:15.574Z,5.57
2022-12-05T09:42:56.585Z,5.32
2022-12-05T09:45:29.953Z,5.60
2022-12-05T09:48:07.118Z,4.90
2022-12-05T09:50:42.444Z,4.47
2022-12-05T09:53:27.486Z,4.22
2022-12-05T09:56:12.187Z,5.00
2022-12-05T09:58:56.763Z,5.38
2022-12-05T10:01:39.088Z,4.72
2022-12-05T10:04:30.158Z,5.13
2022-12-05T10:07:17.329Z,3.33
2022-12-05T10:10:19.975Z,4.53
2022-12-05T10:13:22.575Z,4.18
2022-12-05T10:16:03.968Z,3.95
2022-12-05T10:18:48.385Z,5.43
2022-12-05T10:21:20.066Z,4.05
2022-12-05T10:23:58.251Z,5.63
2022-12-05T10:26:29.909Z,4.97
2022-12-05T10:28:59.487Z,5.03
2022-12-05T10:31:29.617Z,5.10
2022-12-05T10:34:19.186Z,4.82
2022-12-05T10:37:10.204Z,5.03
2022-12-05T10:39:37.672Z,4.60
2022-12-05T10:42:05.085Z,4.30
2022-12-05T10:44:33.289Z,3.70
2022-12-05T10:46:59.716Z,3.10
2022-12-05T10:49:27.879Z,3.80
2022-12-05T10:51:54.180Z,2.35
2022-12-05T10:54:24.675Z,2.25
2022-12-05T10:56:52.789Z,2.05
2022-12-05T10:59:44.056Z,2.30
2022-12-05T11:02:25.879Z,2.42
2022-12-05T11:04:53.577Z,1.58
2022-12-05T11:07:32.992Z,1.30
2022-12-05T11:10:02.023Z,1.30
2022-12-05T11:12:39.438Z,1.35
2022-12-05T11:15:25.452Z,0.93
2022-12-05T11:17:54.768Z,0.93
2022-12-05T11:20:21.075Z,0.82
2022-12-05T11:22:52.956Z,0.55
2022-12-05T11:25:30.608Z,0.60
2022-12-05T11:28:21.219Z,1.23
2022-12-05T11:31:01.359Z,1.80
2022-12-05T11:33:30.763Z,1.30
2022-12-05T11:36:04.507Z,0.80
2022-12-05T11:38:32.713Z,1.10
2022-12-05T11:41:31.677Z,1.10
2022-12-05T11:44:17.456Z,1.10
2022-12-05T11:47:02.236Z,1.30
2022-12-05T11:49:53.326Z,1.33
2022-12-05T11:52:53.686Z,1.85
2022-12-05T11:55:24.740Z,1.48
2022-12-05T11:58:13.569Z,1.25
2022-12-05T12:01:18.366Z,1.30
2022-12-05T12:04:18.106Z,1.10
2022-12-05T12:07:10.864Z,1.23
2022-12-05T12:10:10.041Z,1.20
2022-12-05T12:13:02.014Z,1.60
2022-12-05T12:15:41.106Z,1.42
2022-12-05T12:18:38.761Z,0.95
2022-12-05T12:21:27.209Z,1.10
2022-12-05T12:24:14.889Z,1.08
2022-12-05T12:26:48.745Z,1.88
2022-12-05T12:29:35.522Z,0.93
2022-12-05T12:32:17.257Z,1.67
2022-12-05T12:35:17.579Z,1.45
2022-12-05T12:38:19.381Z,0.90
2022-12-05T12:40:53.418Z,0.82
2022-12-05T12:43:54.869Z,1.05
2022-12-05T12:46:27.528Z,0.80
2022-12-05T12:49:23.049Z,0.25
2022-12-05T12:51:54.980Z,0.60
2022-12-05T12:55:02.720Z,0.57
2022-12-05T12:57:37.842Z,0.50
2022-12-05T13:00:26.286Z,0.40
2022-12-05T13:03:24.838Z,0.40
2022-12-05T13:05:59.701Z,0.80
2022-12-05T13:08:45.244Z,0.55
2022-12-05T13:11:14.528Z,0.50
2022-12-05T13:13:47.238Z,0.55
2022-12-05T13:16:23.784Z,0.70
2022-12-05T13:18:50.172Z,0.47
2022-12-05T13:21:17.443Z,0.77
2022-12-05T13:23:49.815Z,0.90
2022-12-05T13:26:17.699Z,0.90
2022-12-05T13:28:57.724Z,1.00
2022-12-05T13:31:45.459Z,0.80
2022-12-05T13:34:35.195Z,0.80
2022-12-05T13:37:30.192Z,0.68
2022-12-05T13:40:17.172Z,1.33
2022-12-05T13:42:44.357Z,1.55
2022-12-05T13:45:18.366Z,1.30
2022-12-05T13:47:59.592Z,1.08
2022-12-05T13:50:40.982Z,1.17
2022-12-05T13:53:25.701Z,1.25
2022-12-05T13:56:15.420Z,1.00
2022-12-05T13:58:52.049Z,1.80
2022-12-05T14:01:51.923Z,0.88
2022-12-05T14:04:45.614Z,0.95
2022-12-05T14:07:12.411Z,1.13
2022-12-05T14:09:55.018Z,1.30
2022-12-05T14:12:21.273Z,0.90
2022-12-05T14:14:56.968Z,1.10
2022-12-05T14:17:32.039Z,1.00
2022-12-05T14:20:26.602Z,0.43
2022-12-05T14:23:07.999Z,1.30
2022-12-05T14:26:02.086Z,1.27
2022-12-05T14:28:46.913Z,1.13
2022-12-05T14:31:59.651Z,1.27
2022-12-05T14:34:33.178Z,0.60
2022-12-05T14:37:01.526Z,1.23
2022-12-05T14:39:41.582Z,1.50
2022-12-05T14:43:01.522Z,0.90
2022-12-05T14:45:40.442Z,0.93
2022-12-05T14:48:29.352Z,0.95
2022-12-05T14:50:57.398Z,0.77
2022-12-05T14:53:40.552Z,1.00
2022-12-05T14:56:25.435Z,1.17
2022-12-05T14:58:59.781Z,1.33
2022-12-05T15:01:35.387Z,0.90
2022-12-05T15:04:09.255Z,1.27
2022-12-05T15:06:45.847Z,1.60
2022-12-05T15:09:37.115Z,1.98
2022-12-05T15:12:09.715Z,2.20
2022-12-05T15:15:02.664Z,1.70
2022-12-05T15:17:37.876Z,1.52
2022-12-05T15:20:15.318Z,0.70
2022-12-05T15:22:42.333Z,1.17
2022-12-05T15:25:22.301Z,1.05
2022-12-05T15:27:58.009Z,1.25
2022-12-05T15:30:24.569Z,1.30
2022-12-05T15:32:54.839Z,1.63
2022-12-05T15:35:27.336Z,1.25
2022-12-05T15:38:01.258Z,1.10
2022-12-05T15:40:37.171Z,1.65
2022-12-05T15:43:26.272Z,1.35
2022-12-05T15:46:07.089Z,1.02
2022-12-05T15:48:34.275Z,0.80
2022-12-05T15:51:01.746Z,1.13
2022-12-05T15:53:39.806Z,1.25
2022-12-05T15:56:15.422Z,1.35
2022-12-05T15:58:59.694Z,1.40
2022-12-05T16:01:26.709Z,1.33
2022-12-05T16:04:29.528Z,1.75
2022-12-05T16:07:00.377Z,1.70
2022-12-05T16:09:31.912Z,1.70
2022-12-05T16:12:03.852Z,0.90
2022-12-05T16:14:59.088Z,1.58
2022-12-05T16:17:21.941Z,1.25
2022-12-05T16:19:48.877Z,1.30
2022-12-05T16:22:24.407Z,1.58
2022-12-05T16:24:55.239Z,1.03
2022-12-05T16:27:25.057Z,1.30
2022-12-05T16:30:16.521Z,1.00
2022-12-05T16:32:44.365Z,1.13
2022-12-05T16:35:31.395Z,1.95
2022-12-05T16:38:13.033Z,0.90
2022-12-05T16:40:50.230Z,0.93
2022-12-05T16:43:22.706Z,1.58
2022-12-05T16:45:50.225Z,1.50
2022-12-05T16:48:26.126Z,0.95
2022-12-05T16:51:12.706Z,1.13
2022-12-05T16:53:46.475Z,0.55
2022-12-05T16:56:16.830Z,1.08
2022-12-05T16:58:43.273Z,1.45
2022-12-05T17:01:21.672Z,1.33
2022-12-05T17:03:48.694Z,1.25
2022-12-05T17:06:15.498Z,1.13
2022-12-05T17:08:42.791Z,1.15
2022-12-05T17:11:16.653Z,1.05
2022-12-05T17:13:45.057Z,1.60
2022-12-05T17:16:12.030Z,1.80
2022-12-05T17:18:38.569Z,1.10
2022-12-05T17:21:05.224Z,1.27
2022-12-05T17:23:31.825Z,1.10
2022-12-05T17:25:58.898Z,1.20
2022-12-05T17:28:25.561Z,1.20
2022-12-05T17:30:51.997Z,0.95
2022-12-05T17:33:19.692Z,1.20
2022-12-05T17:35:46.641Z,1.00
2022-12-05T17:38:13.301Z,1.10
2022-12-05T17:40:40.369Z,1.43
2022-12-05T17:43:07.061Z,1.17
2022-12-05T17:45:33.560Z,1.25
2022-12-05T17:47:59.947Z,1.30
2022-12-05T17:50:27.125Z,0.95
2022-12-05T17:52:56.053Z,1.20
2022-12-05T17:55:26.382Z,1.48
2022-12-05T17:57:54.119Z,1.25
2022-12-05T18:00:22.725Z,1.25
2022-12-05T18:02:49.926Z,1.55
2022-12-05T18:05:16.690Z,1.25
2022-12-05T18:07:44.644Z,1.25
2022-12-05T18:10:13.921Z,1.42
2022-12-05T18:12:40.968Z,1.17
2022-12-05T18:15:08.476Z,1.40
2022-12-05T18:17:35.386Z,1.13
2022-12-05T18:20:01.898Z,1.35
2022-12-05T18:22:28.410Z,1.38
2022-12-05T18:24:55.385Z,1.52
2022-12-05T18:27:21.915Z,1.40
2022-12-05T18:29:49.186Z,1.20
2022-12-05T18:32:16.346Z,1.60
2022-12-05T18:34:42.733Z,2.00
2022-12-05T18:37:10.446Z,1.25
2022-12-05T18:39:39.789Z,1.13
2022-12-05T18:42:11.735Z,1.48
2022-12-05T18:44:41.307Z,1.17
2022-12-05T18:47:07.653Z,1.70
2022-12-05T18:49:34.105Z,1.13
2022-12-05T18:52:00.445Z,1.10
2022-12-05T18:54:26.816Z,0.90
2022-12-05T18:56:53.247Z,1.30
2022-12-05T18:59:21.673Z,0.80
2022-12-05T19:01:49.071Z,0.80
2022-12-05T19:04:18.381Z,0.98
2022-12-05T19:06:54.156Z,1.07
2022-12-05T19:09:22.658Z,1.13
2022-12-05T19:11:51.105Z,0.75
2022-12-05T19:14:19.293Z,1.23
2022-12-05T19:16:48.547Z,1.10
2022-12-05T19:19:15.526Z,1.07
2022-12-05T19:21:42.322Z,1.38
2022-12-05T19:24:10.963Z,0.93
2022-12-05T19:26:37.562Z,0.80
2022-12-05T19:29:04.625Z,1.15
2022-12-05T19:31:31.651Z,1.00
2022-12-05T19:34:02.914Z,1.10
2022-12-05T19:36:38.119Z,1.10
2022-12-05T19:39:16.853Z,0.85
2022-12-05T19:41:43.557Z,1.20
2022-12-05T19:44:10.548Z,0.93
2022-12-05T19:46:37.472Z,1.30
2022-12-05T19:49:06.648Z,1.33
2022-12-05T19:51:33.836Z,1.30
2022-12-05T19:54:01.884Z,1.35
2022-12-05T19:56:30.550Z,1.25
2022-12-05T19:58:58.816Z,1.35
2022-12-05T20:01:37.014Z,1.30
2022-12-05T20:04:06.838Z,1.45
2022-12-05T20:06:41.630Z,1.67
2022-12-05T20:09:09.751Z,1.30
2022-12-05T20:11:39.100Z,1.60
2022-12-05T20:14:06.113Z,1.20
2022-12-05T20:16:33.752Z,1.27
2022-12-05T20:19:00.391Z,1.35
2022-12-05T20:21:29.107Z,1.80
2022-12-05T20:23:56.443Z,1.63
2022-12-05T20:26:28.492Z,1.83
2022-12-05T20:28:58.096Z,2.00
2022-12-05T20:31:33.202Z,1.50
2022-12-05T20:34:00.455Z,1.50
2022-12-05T20:36:30.184Z,1.23
2022-12-05T20:38:59.669Z,1.40
2022-12-05T20:41:26.458Z,2.40
2022-12-05T20:43:55.932Z,1.98
2022-12-05T20:46:23.373Z,1.85
2022-12-05T20:48:51.277Z,2.08
2022-12-05T20:51:23.201Z,1.67
2022-12-05T20:53:49.857Z,1.30
2022-12-05T20:56:22.090Z,1.58
2022-12-05T20:58:50.499Z,1.50
2022-12-05T21:01:18.892Z,1.85
2022-12-05T21:03:47.742Z,1.02
2022-12-05T21:06:16.463Z,1.70
2022-12-05T21:08:43.023Z,1.20
2022-12-05T21:11:11.242Z,1.37
2022-12-05T21:13:38.418Z,1.42
2022-12-05T21:16:07.932Z,1.50
2022-12-05T21:18:34.904Z,1.25
2022-12-05T21:21:04.041Z,1.33
2022-12-05T21:23:30.843Z,1.40
2022-12-05T21:26:01.951Z,0.85
2022-12-05T21:28:30.835Z,1.40
2022-12-05T21:31:17.283Z,1.10
2022-12-05T21:33:49.061Z,0.73
2022-12-05T21:36:15.646Z,1.30
2022-12-05T21:38:42.063Z,1.15
2022-12-05T21:41:08.505Z,1.27
2022-12-05T21:43:36.034Z,0.88
2022-12-05T21:46:02.887Z,1.23
2022-12-05T21:48:29.288Z,0.80
2022-12-05T21:50:56.221Z,0.90
2022-12-05T21:53:22.754Z,0.80
2022-12-05T21:55:58.559Z,0.77
2022-12-05T21:58:24.865Z,0.60
2022-12-05T22:00:51.154Z,0.87
2022-12-05T22:03:17.505Z,0.70
2022-12-05T22:05:43.889Z,0.95
2022-12-05T22:08:10.597Z,0.77
2022-12-05T22:10:37.658Z,0.60
2022-12-05T22:13:04.533Z,0.60
2022-12-05T22:15:31.282Z,1.00
2022-12-05T22:17:57.729Z,0.77
2022-12-05T22:20:24.364Z,0.80
2022-12-05T22:22:50.902Z,0.70
2022-12-05T22:25:17.267Z,0.88
2022-12-05T22:27:43.650Z,0.60
2022-12-05T22:30:10.263Z,0.98
2022-12-05T22:32:36.616Z,0.80
2022-12-05T22:35:04.263Z,0.60
2022-12-05T22:37:31.160Z,0.68
2022-12-05T22:39:57.823Z,0.50
2022-12-05T22:42:26.305Z,0.98
2022-12-05T22:44:52.659Z,0.82
2022-12-05T22:47:18.983Z,0.82
2022-12-05T22:49:45.275Z,1.27
2022-12-05T22:52:11.638Z,0.80
2022-12-05T22:54:38.006Z,0.68
2022-12-05T22:57:04.402Z,1.05
2022-12-05T22:59:30.725Z,0.85
2022-12-05T23:01:57.182Z,0.90
2022-12-05T23:04:23.988Z,0.80
2022-12-05T23:06:50.410Z,0.75
2022-12-05T23:09:16.876Z,1.17
2022-12-05T23:11:43.267Z,0.85
2022-12-05T23:14:09.678Z,0.80
2022-12-05T23:16:36.263Z,0.80
2022-12-05T23:19:05.224Z,0.80
2022-12-05T23:21:34.638Z,1.05
2022-12-05T23:24:03.571Z,0.60
2022-12-05T23:26:33.380Z,0.50
2022-12-05T23:28:59.876Z,0.75
2022-12-05T23:31:26.430Z,0.57
2022-12-05T23:33:53.571Z,0.98
2022-12-05T23:36:20.878Z,1.38
2022-12-05T23:38:47.554Z,1.03
2022-12-05T23:41:16.851Z,0.98
2022-12-05T23:43:43.895Z,0.88
2022-12-05T23:46:12.590Z,0.70
2022-12-05T23:48:39.669Z,1.10
2022-12-05T23:51:12.885Z,1.33
2022-12-05T23:53:41.280Z,1.27
2022-12-05T23:56:14.227Z,0.85
2022-12-05T23:58:40.998Z,1.40
